Time,TemperatureF,DewpointF,PressureIn,WindDirection,WindDirectionDegrees,WindSpeedMPH,WindSpeedGustMPH,Humidity,HourlyPrecipIn,Conditions,Clouds,dailyrainin,SolarRadiationWatts/m^2,SoftwareType,DateUTC
2013-04-01 00:14:00,58.0,52.0,30.18,SSW,211,4.0,10.0,80,0.00,,,0.10,0.000000,,2013-04-01 04:14:00,
2013-04-01 00:24:00,58.0,52.0,30.18,SSW,211,4.0,10.0,80,0.00,,,0.10,0.000000,,2013-04-01 04:24:00,
2013-04-01 00:33:00,58.0,52.0,30.18,SSW,211,4.0,10.0,80,0.00,,,0.10,0.000000,,2013-04-01 04:33:00,
2013-04-01 00:43:00,58.0,52.0,30.18,SSW,211,4.0,10.0,80,0.00,,,0.10,0.000000,,2013-04-01 04:43:00,
2013-04-01 01:13:00,59.0,53.0,30.18,SSW,201,5.0,11.0,81,0.00,,,0.10,0.000000,,2013-04-01 05:13:00,
2013-04-01 01:23:00,59.0,53.0,30.18,SSW,201,5.0,11.0,81,0.00,,,0.10,0.000000,,2013-04-01 05:23:00,
2013-04-01 01:33:00,59.0,53.0,30.18,SSW,201,5.0,11.0,81,0.00,,,0.10,0.000000,,2013-04-01 05:33:00,
2013-04-01 01:43:00,59.0,53.0,30.18,SSW,201,5.0,11.0,81,0.00,,,0.10,0.000000,,2013-04-01 05:43:00,
2013-04-01 02:13:00,58.0,54.0,30.17,SSW,209,4.0,11.0,86,0.00,,,0.10,0.000000,,2013-04-01 06:13:00,
2013-04-01 02:23:00,58.0,54.0,30.17,SSW,209,4.0,11.0,86,0.00,,,0.10,0.000000,,2013-04-01 06:23:00,
2013-04-01 02:33:00,58.0,54.0,30.17,SSW,209,4.0,11.0,86,0.00,,,0.10,0.000000,,2013-04-01 06:33:00,
2013-04-01 02:43:00,58.0,54.0,30.17,SSW,209,4.0,11.0,86,0.00,,,0.10,0.000000,,2013-04-01 06:43:00,
2013-04-01 03:13:00,59.0,56.0,30.16,SSW,200,3.0,7.0,90,0.00,,,0.10,0.000000,,2013-04-01 07:13:00,
2013-04-01 03:22:00,59.0,56.0,30.16,SSW,200,3.0,7.0,90,0.00,,,0.10,0.000000,,2013-04-01 07:22:00,
2013-04-01 03:32:00,59.0,56.0,30.16,SSW,200,3.0,7.0,90,0.00,,,0.10,0.000000,,2013-04-01 07:32:00,
2013-04-01 03:42:00,59.0,56.0,30.16,SSW,200,3.0,7.0,90,0.00,,,0.10,0.000000,,2013-04-01 07:42:00,
2013-04-01 04:13:00,59.0,58.0,30.15,SW,218,5.0,13.0,96,0.08,,,0.18,0.000000,,2013-04-01 08:13:00,
2013-04-01 04:22:00,59.0,58.0,30.15,SW,218,5.0,13.0,96,0.08,,,0.18,0.000000,,2013-04-01 08:22:00,
2013-04-01 04:32:00,59.0,58.0,30.15,SW,218,5.0,13.0,96,0.08,,,0.18,0.000000,,2013-04-01 08:32:00,
2013-04-01 04:43:00,59.0,58.0,30.15,SW,218,5.0,13.0,96,0.08,,,0.18,0.000000,,2013-04-01 08:43:00,
2013-04-01 05:12:00,58.0,57.0,30.16,SW,232,7.0,18.0,97,0.18,,,0.36,0.000000,,2013-04-01 09:12:00,
2013-04-01 05:23:00,58.0,57.0,30.16,SW,232,7.0,18.0,97,0.18,,,0.36,0.000000,,2013-04-01 09:23:00,
2013-04-01 05:33:00,58.0,57.0,30.16,SW,232,7.0,18.0,97,0.18,,,0.36,0.000000,,2013-04-01 09:33:00,
2013-04-01 05:43:00,58.0,57.0,30.16,SW,232,7.0,18.0,97,0.18,,,0.36,0.000000,,2013-04-01 09:43:00,
2013-04-01 06:13:00,60.0,59.0,30.15,WSW,251,5.0,16.0,96,0.02,,,0.32,0.000000,,2013-04-01 10:13:00,
2013-04-01 06:23:00,60.0,59.0,30.15,WSW,251,5.0,16.0,96,0.02,,,0.32,0.000000,,2013-04-01 10:23:00,
2013-04-01 06:33:00,60.0,59.0,30.15,WSW,251,5.0,16.0,96,0.02,,,0.32,0.000000,,2013-04-01 10:33:00,
2013-04-01 06:42:00,60.0,59.0,30.15,WSW,251,5.0,16.0,96,0.02,,,0.32,0.000000,,2013-04-01 10:42:00,
2013-04-01 07:13:00,58.0,57.0,30.17,West,275,5.0,14.0,96,0.02,,,0.31,0.000000,,2013-04-01 11:13:00,
2013-04-01 07:23:00,58.0,57.0,30.17,West,275,5.0,14.0,96,0.02,,,0.31,0.000000,,2013-04-01 11:23:00,
2013-04-01 07:33:00,58.0,57.0,30.17,West,275,5.0,14.0,96,0.02,,,0.31,0.000000,,2013-04-01 11:33:00,
2013-04-01 07:43:00,58.0,57.0,30.17,West,275,5.0,14.0,96,0.02,,,0.31,0.000000,,2013-04-01 11:43:00,
2013-04-01 08:12:00,59.0,58.0,30.19,NW,322,4.0,11.0,97,0.03,,,0.34,0.000000,,2013-04-01 12:12:00,
2013-04-01 08:23:00,59.0,58.0,30.19,NW,322,4.0,11.0,97,0.03,,,0.34,0.000000,,2013-04-01 12:23:00,
2013-04-01 08:32:00,59.0,58.0,30.19,NW,322,4.0,11.0,97,0.03,,,0.34,0.000000,,2013-04-01 12:32:00,
2013-04-01 08:42:00,59.0,58.0,30.19,NW,322,4.0,11.0,97,0.03,,,0.34,0.000000,,2013-04-01 12:42:00,
2013-04-01 09:12:00,59.0,58.0,30.21,NW,320,4.0,10.0,97,0.01,,,0.34,23.000000,,2013-04-01 13:12:00,
2013-04-01 09:22:00,59.0,58.0,30.21,NW,320,4.0,10.0,97,0.01,,,0.34,23.000000,,2013-04-01 13:22:00,
2013-04-01 09:33:00,59.0,58.0,30.21,NW,320,4.0,10.0,97,0.01,,,0.34,23.000000,,2013-04-01 13:33:00,
2013-04-01 09:42:00,59.0,58.0,30.21,NW,320,4.0,10.0,97,0.01,,,0.34,23.000000,,2013-04-01 13:42:00,
2013-04-01 10:13:00,58.0,55.0,30.22,North,1,4.0,11.0,91,0.00,,,0.34,111.000000,,2013-04-01 14:13:00,
2013-04-01 10:23:00,58.0,55.0,30.22,North,1,4.0,11.0,91,0.00,,,0.34,111.000000,,2013-04-01 14:23:00,
2013-04-01 10:33:00,58.0,55.0,30.22,North,1,4.0,11.0,91,0.00,,,0.34,111.000000,,2013-04-01 14:33:00,
2013-04-01 10:42:00,58.0,55.0,30.22,North,1,4.0,11.0,91,0.00,,,0.34,111.000000,,2013-04-01 14:42:00,
2013-04-01 11:13:00,66.0,56.0,30.21,North,354,4.0,11.0,69,0.00,,,0.34,377.000000,,2013-04-01 15:13:00,
2013-04-01 11:23:00,66.0,56.0,30.21,North,354,4.0,11.0,69,0.00,,,0.34,377.000000,,2013-04-01 15:23:00,
2013-04-01 11:34:00,66.0,56.0,30.21,North,354,4.0,11.0,69,0.00,,,0.34,377.000000,,2013-04-01 15:34:00,
2013-04-01 11:43:00,66.0,56.0,30.21,North,354,4.0,11.0,69,0.00,,,0.34,377.000000,,2013-04-01 15:43:00,
2013-04-01 12:13:00,68.0,43.0,30.21,ENE,58,4.0,10.0,41,0.00,,,0.34,728.000000,,2013-04-01 16:13:00,
2013-04-01 12:23:00,68.0,43.0,30.21,ENE,58,4.0,10.0,41,0.00,,,0.34,728.000000,,2013-04-01 16:23:00,
2013-04-01 12:33:00,68.0,43.0,30.21,ENE,58,4.0,10.0,41,0.00,,,0.34,728.000000,,2013-04-01 16:33:00,
2013-04-01 12:43:00,68.0,43.0,30.21,ENE,58,4.0,10.0,41,0.00,,,0.34,728.000000,,2013-04-01 16:43:00,
2013-04-01 14:12:00,71.0,36.0,30.19,NW,321,6.0,18.0,28,-99.99,,,0.34,932.000000,,2013-04-01 18:12:00,
2013-04-01 14:22:00,71.0,36.0,30.19,NW,321,6.0,18.0,28,-99.99,,,0.34,932.000000,,2013-04-01 18:22:00,
2013-04-01 14:33:00,71.0,36.0,30.19,NW,321,6.0,18.0,28,-99.99,,,0.34,932.000000,,2013-04-01 18:33:00,
2013-04-01 14:43:00,71.0,36.0,30.19,NW,321,6.0,18.0,28,-99.99,,,0.34,932.000000,,2013-04-01 18:43:00,
2013-04-01 15:13:00,73.0,38.0,30.17,WNW,288,8.0,22.0,28,0.00,,,0.34,809.000000,,2013-04-01 19:13:00,
2013-04-01 15:23:00,73.0,38.0,30.17,WNW,288,8.0,22.0,28,0.00,,,0.34,809.000000,,2013-04-01 19:23:00,
2013-04-01 15:32:00,73.0,38.0,30.17,WNW,288,8.0,22.0,28,0.00,,,0.34,809.000000,,2013-04-01 19:32:00,
2013-04-01 15:42:00,73.0,38.0,30.17,WNW,288,8.0,22.0,28,0.00,,,0.34,809.000000,,2013-04-01 19:42:00,
2013-04-01 16:13:00,76.0,37.0,30.16,NW,310,10.0,22.0,24,0.00,,,0.34,912.000000,,2013-04-01 20:13:00,
2013-04-01 16:23:00,76.0,37.0,30.16,NW,310,10.0,22.0,24,0.00,,,0.34,912.000000,,2013-04-01 20:23:00,
2013-04-01 16:33:00,76.0,37.0,30.16,NW,310,10.0,22.0,24,0.00,,,0.34,912.000000,,2013-04-01 20:33:00,
2013-04-01 16:43:00,76.0,37.0,30.16,NW,310,10.0,22.0,24,0.00,,,0.34,912.000000,,2013-04-01 20:43:00,
2013-04-01 17:12:00,75.0,32.0,30.15,WNW,286,11.0,22.0,21,0.00,,,0.34,724.000000,,2013-04-01 21:12:00,
2013-04-01 17:23:00,75.0,32.0,30.15,WNW,286,11.0,22.0,21,0.00,,,0.34,724.000000,,2013-04-01 21:23:00,
2013-04-01 17:33:00,75.0,32.0,30.15,WNW,286,11.0,22.0,21,0.00,,,0.34,724.000000,,2013-04-01 21:33:00,
2013-04-01 17:43:00,75.0,32.0,30.15,WNW,286,11.0,22.0,21,0.00,,,0.34,724.000000,,2013-04-01 21:43:00,
2013-04-01 18:13:00,75.0,32.0,30.15,WNW,286,8.0,21.0,21,0.00,,,0.34,541.000000,,2013-04-01 22:13:00,
2013-04-01 18:23:00,75.0,32.0,30.15,WNW,286,8.0,21.0,21,0.00,,,0.34,541.000000,,2013-04-01 22:23:00,
2013-04-01 18:33:00,75.0,32.0,30.15,WNW,286,8.0,21.0,21,0.00,,,0.34,541.000000,,2013-04-01 22:33:00,
2013-04-01 18:43:00,75.0,32.0,30.15,WNW,286,8.0,21.0,21,0.00,,,0.34,541.000000,,2013-04-01 22:43:00,
2013-04-01 19:12:00,71.0,35.0,30.17,NNW,348,5.0,17.0,27,0.00,,,0.34,260.000000,,2013-04-01 23:12:00,
2013-04-01 19:23:00,71.0,35.0,30.17,NNW,348,5.0,17.0,27,0.00,,,0.34,260.000000,,2013-04-01 23:23:00,
2013-04-01 19:32:00,71.0,35.0,30.17,NNW,348,5.0,17.0,27,0.00,,,0.34,260.000000,,2013-04-01 23:32:00,
2013-04-01 19:43:00,71.0,35.0,30.17,NNW,348,5.0,17.0,27,0.00,,,0.34,260.000000,,2013-04-01 23:43:00,
2013-04-01 20:12:00,63.0,37.0,30.17,NNW,335,4.0,8.0,38,0.00,,,0.34,58.000000,,2013-04-02 00:12:00,
2013-04-01 20:22:00,63.0,37.0,30.17,NNW,335,4.0,8.0,38,0.00,,,0.34,58.000000,,2013-04-02 00:22:00,
2013-04-01 20:33:00,63.0,37.0,30.17,NNW,335,4.0,8.0,38,0.00,,,0.34,58.000000,,2013-04-02 00:33:00,
2013-04-01 20:43:00,63.0,37.0,30.17,NNW,335,4.0,8.0,38,0.00,,,0.34,58.000000,,2013-04-02 00:43:00,
2013-04-01 21:12:00,60.0,40.0,30.19,North,349,4.0,8.0,48,0.00,,,0.34,0.000000,,2013-04-02 01:12:00,
2013-04-01 21:22:00,60.0,40.0,30.19,North,349,4.0,8.0,48,0.00,,,0.34,0.000000,,2013-04-02 01:22:00,
2013-04-01 21:32:00,60.0,40.0,30.19,North,349,4.0,8.0,48,0.00,,,0.34,0.000000,,2013-04-02 01:32:00,
2013-04-01 21:43:00,60.0,40.0,30.19,North,349,4.0,8.0,48,0.00,,,0.34,0.000000,,2013-04-02 01:43:00,
2013-04-01 22:12:00,56.0,41.0,30.22,North,9,4.0,10.0,58,0.00,,,0.34,0.000000,,2013-04-02 02:12:00,
2013-04-01 22:22:00,56.0,41.0,30.22,North,9,4.0,10.0,58,0.00,,,0.34,0.000000,,2013-04-02 02:22:00,
2013-04-01 22:32:00,56.0,41.0,30.22,North,9,4.0,10.0,58,0.00,,,0.34,0.000000,,2013-04-02 02:32:00,
2013-04-01 22:42:00,56.0,41.0,30.22,North,9,4.0,10.0,58,0.00,,,0.34,0.000000,,2013-04-02 02:42:00,
2013-04-01 23:13:00,55.0,41.0,30.24,SE,137,6.0,13.0,60,0.00,,,0.34,0.000000,,2013-04-02 03:13:00,
2013-04-01 23:22:00,55.0,41.0,30.24,SE,137,6.0,13.0,60,0.00,,,0.34,0.000000,,2013-04-02 03:22:00,
2013-04-01 23:33:00,55.0,41.0,30.24,SE,137,6.0,13.0,60,0.00,,,0.34,0.000000,,2013-04-02 03:33:00,
2013-04-01 23:43:00,55.0,41.0,30.24,SE,137,6.0,13.0,60,0.00,,,0.34,0.000000,,2013-04-02 03:43:00,